KCAK/CAK METAR and TAF weather

Enter ICAO airport designator
Station Type Date Time Source
KCAK METAR 2020/04/07 03:51 UTC NOAA

KCAK 070351Z 06004KT 10SM SCT055 OVC100 13/01 A2998 RMK AO2 SLP154 T01280011


Station Type Date Time Source
KCAK Decoded METAR 2020/04/07 03:51 UTC NOAA

AKRON-CANTON REGIONAL AIRPORT , OH, United States (KCAK) 40-55N 081-27W 377M
Apr 06, 2020 - 11:51 PM EDT / 2020.04.07 0351 UTC
Wind: from the ENE (060 degrees) at 5 MPH (4 KT):0
Visibility: 10 mile(s):0
Sky conditions: overcast
Temperature: 55.0 F (12.8 C)
Dew Point: 34.0 F (1.1 C)
Relative Humidity: 44%
Pressure (altimeter): 29.98 in. Hg (1015 hPa)
ob: KCAK 070351Z 06004KT 10SM SCT055 OVC100 13/01 A2998 RMK AO2 SLP154 T01280011
cycle: 4

Station Type Date Time Source
KCAK TAF 2020/04/06 18:22 UTC NOAA

TAF KCAK 061720Z 0618/0718 VRB02KT P6SM SKC
FM070200 VRB02KT P6SM VCSH BKN090
FM071000 18004KT 6SM BR VCSH OVC030
FM071200 18005KT 5SM BR VCSH OVC008
FM071500 19006KT P6SM OVC008

Example: see airport list